Time;durP1;ratioP1;P1;durP2;ratioP2;P2;SDS_P1;SDS_P2;PMS_P1;PMS_P2;Temp;Humidity;BMP_temperature;BMP_pressure;BME280_temperature;BME280_humidity;BME280_pressure;Samples;Min_cycle;Max_cycle;Signal;HPM_P1;HPM_P2
2022/08/06 00:02:00;;;;;;;;;;;25.20;73.90;;;;;;5056138;28;19921;-62
2022/08/06 00:04:26;;;;;;;;;;;25.20;74.10;;;;;;5051912;28;19933;-62
2022/08/06 00:06:51;;;;;;;;;;;25.00;73.50;;;;;;5036765;28;19932;-61
2022/08/06 00:09:17;;;;;;;;;;;25.20;73.50;;;;;;5036758;28;20402;-62
2022/08/06 00:11:43;;;;;;;;;;;25.30;73.70;;;;;;5044298;28;19931;-61
2022/08/06 00:14:08;;;;;;;;;;;24.90;73.20;;;;;;5072002;28;19925;-61
2022/08/06 00:16:34;;;;;;;;;;;24.80;73.20;;;;;;5052430;28;20040;-62
2022/08/06 00:19:00;;;;;;;;;;;24.80;73.30;;;;;;5059227;28;19925;-62
2022/08/06 00:21:25;;;;;;;;;;;24.90;73.30;;;;;;5075959;28;20073;-62
2022/08/06 00:23:51;;;;;;;;;;;25.00;73.70;;;;;;5070555;28;19924;-62
2022/08/06 00:26:16;;;;;;;;;;;25.10;73.40;;;;;;5056684;28;20382;-62
2022/08/06 00:28:42;;;;;;;;;;;25.10;73.60;;;;;;5087617;28;19928;-61
2022/08/06 00:31:08;;;;;;;;;;;25.00;73.50;;;;;;5069070;28;19924;-62
2022/08/06 00:33:33;;;;;;;;;;;24.90;73.40;;;;;;5075131;28;19924;-61
2022/08/06 00:35:59;;;;;;;;;;;25.00;73.70;;;;;;5075941;28;20352;-61
2022/08/06 00:38:25;;;;;;;;;;;25.10;73.40;;;;;;5074490;28;19947;-61
2022/08/06 00:40:51;;;;;;;;;;;24.90;73.50;;;;;;5075598;28;19925;-62
2022/08/06 00:43:16;;;;;;;;;;;25.00;73.50;;;;;;5064526;28;19925;-62
2022/08/06 00:45:42;;;;;;;;;;;24.70;73.50;;;;;;5058353;28;20337;-62
2022/08/06 00:48:07;;;;;;;;;;;25.00;73.50;;;;;;5062770;28;19970;-62
2022/08/06 00:50:33;;;;;;;;;;;24.80;73.50;;;;;;5059987;28;19925;-61
2022/08/06 00:52:59;;;;;;;;;;;24.80;73.50;;;;;;5054714;28;20030;-62
2022/08/06 00:55:24;;;;;;;;;;;24.70;73.50;;;;;;5069316;28;20290;-62
2022/08/06 00:57:50;;;;;;;;;;;24.90;73.40;;;;;;5071497;28;20035;-61
2022/08/06 01:00:16;;;;;;;;;;;24.90;73.60;;;;;;5058689;28;20377;-61
2022/08/06 01:02:41;;;;;;;;;;;24.80;73.30;;;;;;5045610;28;19929;-62
2022/08/06 01:05:07;;;;;;;;;;;24.80;73.50;;;;;;5075742;28;19925;-62
2022/08/06 01:07:32;;;;;;;;;;;24.80;73.30;;;;;;5074891;28;19925;-62
2022/08/06 01:09:58;;;;;;;;;;;24.80;73.40;;;;;;5070236;28;19932;-62
2022/08/06 01:12:24;;;;;;;;;;;24.70;73.30;;;;;;5074708;28;20329;-62
2022/08/06 01:14:50;;;;;;;;;;;24.70;73.50;;;;;;5075967;28;20270;-62
2022/08/06 01:17:34;;;;;;;;;;;24.60;73.20;;;;;;5059159;28;19931;-62
2022/08/06 01:20:18;;;;;;;;;;;24.70;72.10;;;;;;5051586;28;19933;-62
2022/08/06 01:23:03;;;;;;;;;;;24.60;72.00;;;;;;5053387;28;19939;-62
2022/08/06 01:25:55;;;;;;;;;;;24.70;72.10;;;;;;5070793;28;19970;-62
2022/08/06 01:28:24;;;;;;;;;;;24.70;72.10;;;;;;4996147;28;20020;-62
2022/08/06 01:30:54;;;;;;;;;;;24.70;72.10;;;;;;4982444;28;20435;-63
2022/08/06 01:33:24;;;;;;;;;;;24.60;73.40;;;;;;4992912;28;19925;-61
2022/08/06 01:35:50;;;;;;;;;;;24.60;72.10;;;;;;4992961;28;20316;-61
2022/08/06 01:38:26;;;;;;;;;;;24.70;73.50;;;;;;4976328;28;19925;-61
2022/08/06 01:40:52;;;;;;;;;;;24.70;72.10;;;;;;4989617;28;19936;-61
2022/08/06 01:43:18;;;;;;;;;;;24.70;73.30;;;;;;4993062;28;19929;-62
2022/08/06 01:45:44;;;;;;;;;;;24.50;73.30;;;;;;4993179;28;20449;-61
2022/08/06 01:48:11;;;;;;;;;;;24.20;72.90;;;;;;4992977;28;20005;-61
2022/08/06 01:50:38;;;;;;;;;;;24.50;73.30;;;;;;4982372;28;19926;-61
2022/08/06 01:53:04;;;;;;;;;;;24.60;73.30;;;;;;4991254;28;19926;-61
2022/08/06 01:55:40;;;;;;;;;;;24.50;73.10;;;;;;4957564;28;19949;-62
2022/08/06 01:58:05;;;;;;;;;;;24.70;73.30;;;;;;4986111;28;20356;-61
2022/08/06 02:00:32;;;;;;;;;;;24.60;73.00;;;;;;4976270;28;19929;-62
2022/08/06 02:02:58;;;;;;;;;;;24.30;73.10;;;;;;4985547;28;19926;-62
2022/08/06 02:05:24;;;;;;;;;;;24.70;73.30;;;;;;5037118;28;20098;-61
2022/08/06 02:07:50;;;;;;;;;;;24.90;73.20;;;;;;5053991;28;19928;-61
2022/08/06 02:10:15;;;;;;;;;;;24.40;72.80;;;;;;5049737;28;19925;-61
2022/08/06 02:12:41;;;;;;;;;;;24.60;72.90;;;;;;5054406;28;19940;-61
2022/08/06 02:15:17;;;;;;;;;;;24.70;72.80;;;;;;5068395;28;19960;-62
2022/08/06 02:17:46;;;;;;;;;;;24.50;71.60;;;;;;5054390;28;19928;-61
2022/08/06 02:20:11;;;;;;;;;;;24.50;73.00;;;;;;5052703;28;20020;-61
2022/08/06 02:22:37;;;;;;;;;;;24.20;72.80;;;;;;5034652;28;19968;-61
2022/08/06 02:25:04;;;;;;;;;;;24.40;73.10;;;;;;5050106;28;20007;-61
2022/08/06 02:27:31;;;;;;;;;;;24.60;72.90;;;;;;5050445;28;19947;-61
2022/08/06 02:29:56;;;;;;;;;;;24.20;73.00;;;;;;5057026;28;19939;-61
2022/08/06 02:32:22;;;;;;;;;;;24.50;72.50;;;;;;5073912;28;19924;-62
2022/08/06 02:34:47;;;;;;;;;;;24.20;72.70;;;;;;5061235;28;20401;-61
2022/08/06 02:37:15;;;;;;;;;;;24.60;72.90;;;;;;5052292;28;19924;-62
2022/08/06 02:39:42;;;;;;;;;;;24.30;73.00;;;;;;5039073;28;19933;-61
2022/08/06 02:42:08;;;;;;;;;;;24.50;73.10;;;;;;5032079;28;19972;-62
2022/08/06 02:44:56;;;;;;;;;;;24.40;73.10;;;;;;5053470;28;19925;-61
2022/08/06 02:47:30;;;;;;;;;;;24.40;71.70;;;;;;5083792;28;19975;-61
2022/08/06 02:49:57;;;;;;;;;;;24.40;71.80;;;;;;5053159;28;19925;-61
2022/08/06 02:52:26;;;;;;;;;;;24.20;73.00;;;;;;5053204;28;19929;-61
2022/08/06 02:54:55;;;;;;;;;;;24.40;71.70;;;;;;5067001;28;19983;-61
2022/08/06 02:57:31;;;;;;;;;;;24.30;73.00;;;;;;5054852;28;20001;-62
2022/08/06 02:59:59;;;;;;;;;;;24.50;71.60;;;;;;5053129;28;19925;-61
2022/08/06 03:02:24;;;;;;;;;;;24.40;73.10;;;;;;5043563;28;19968;-61
2022/08/06 03:04:50;;;;;;;;;;;24.30;72.80;;;;;;5057656;28;20035;-62
2022/08/06 03:07:15;;;;;;;;;;;24.50;73.10;;;;;;5065136;28;19925;-61
2022/08/06 03:09:42;;;;;;;;;;;24.40;72.80;;;;;;5042217;28;19924;-62
2022/08/06 03:12:08;;;;;;;;;;;24.20;73.00;;;;;;5072757;28;19933;-62
2022/08/06 03:14:34;;;;;;;;;;;24.30;72.60;;;;;;5074820;28;19924;-61
2022/08/06 03:16:59;;;;;;;;;;;24.30;72.80;;;;;;5071770;28;19924;-61
2022/08/06 03:19:26;;;;;;;;;;;24.20;72.70;;;;;;5036554;28;20337;-61
2022/08/06 03:21:51;;;;;;;;;;;24.00;72.80;;;;;;5057679;28;19982;-62
2022/08/06 03:24:17;;;;;;;;;;;24.20;72.60;;;;;;5052717;28;19929;-61
2022/08/06 03:26:43;;;;;;;;;;;24.20;72.80;;;;;;5062124;28;19932;-61
2022/08/06 03:29:08;;;;;;;;;;;24.30;72.80;;;;;;5061497;28;20279;-62
2022/08/06 03:31:34;;;;;;;;;;;24.30;72.90;;;;;;5058955;28;20302;-61
2022/08/06 03:33:59;;;;;;;;;;;24.30;72.70;;;;;;5072624;28;20110;-62
2022/08/06 03:36:25;;;;;;;;;;;24.20;72.80;;;;;;5071227;28;19978;-61
2022/08/06 03:39:01;;;;;;;;;;;24.10;72.70;;;;;;5037251;28;19933;-61
2022/08/06 03:41:27;;;;;;;;;;;24.20;73.00;;;;;;5053162;28;19971;-62
2022/08/06 03:43:52;;;;;;;;;;;24.00;72.70;;;;;;5056663;28;20433;-61
2022/08/06 03:46:23;;;;;;;;;;;24.30;72.90;;;;;;5056899;28;20020;-61
2022/08/06 03:48:48;;;;;;;;;;;24.30;73.10;;;;;;5057737;28;19968;-61
2022/08/06 03:51:17;;;;;;;;;;;24.00;72.70;;;;;;5058976;28;19925;-61
2022/08/06 03:53:43;;;;;;;;;;;24.30;73.00;;;;;;5056706;28;19932;-61
2022/08/06 03:56:09;;;;;;;;;;;24.20;72.80;;;;;;5052171;28;19925;-61
2022/08/06 03:58:36;;;;;;;;;;;24.10;72.60;;;;;;5053087;28;19925;-61
2022/08/06 04:01:06;;;;;;;;;;;24.40;73.30;;;;;;5056125;28;19929;-64
2022/08/06 04:03:32;;;;;;;;;;;24.10;71.70;;;;;;5056612;28;19936;-61
2022/08/06 04:05:57;;;;;;;;;;;24.20;73.20;;;;;;5040030;28;19925;-61
2022/08/06 04:08:23;;;;;;;;;;;24.20;73.00;;;;;;5060369;28;19932;-62
2022/08/06 04:10:49;;;;;;;;;;;24.00;72.80;;;;;;5057876;28;19928;-61
2022/08/06 04:13:15;;;;;;;;;;;24.20;73.00;;;;;;5055566;28;19988;-61
2022/08/06 04:15:43;;;;;;;;;;;24.00;72.90;;;;;;5055642;28;21340;-61
2022/08/06 04:18:09;;;;;;;;;;;24.10;72.70;;;;;;5051894;28;19925;-61
2022/08/06 04:20:35;;;;;;;;;;;24.10;73.20;;;;;;5055889;28;19925;-61
2022/08/06 04:23:01;;;;;;;;;;;24.00;72.90;;;;;;5052238;28;20392;-63
2022/08/06 04:25:27;;;;;;;;;;;24.10;72.90;;;;;;5056061;28;20027;-61
2022/08/06 04:27:52;;;;;;;;;;;24.10;73.20;;;;;;5065501;28;19921;-61
2022/08/06 04:30:18;;;;;;;;;;;24.00;72.90;;;;;;5058888;28;20297;-61
2022/08/06 04:32:44;;;;;;;;;;;24.10;72.80;;;;;;5071226;28;19938;-61
2022/08/06 04:35:09;;;;;;;;;;;23.80;72.60;;;;;;5051135;28;20025;-61
2022/08/06 04:37:35;;;;;;;;;;;24.20;72.90;;;;;;5048804;28;19925;-61
2022/08/06 04:40:01;;;;;;;;;;;24.20;72.70;;;;;;5036799;28;20020;-64
2022/08/06 04:42:26;;;;;;;;;;;24.20;72.60;;;;;;5053186;28;19924;-62
2022/08/06 04:44:52;;;;;;;;;;;24.20;72.60;;;;;;5071081;28;19924;-62
2022/08/06 04:47:17;;;;;;;;;;;24.10;72.50;;;;;;5045294;28;19921;-61
2022/08/06 04:49:43;;;;;;;;;;;24.10;72.30;;;;;;5054281;28;19924;-62
2022/08/06 04:52:09;;;;;;;;;;;24.20;72.50;;;;;;5070356;28;19925;-67
2022/08/06 04:54:34;;;;;;;;;;;24.00;72.10;;;;;;5072503;28;19921;-62
2022/08/06 04:57:00;;;;;;;;;;;24.10;72.30;;;;;;5058768;28;19924;-62
2022/08/06 04:59:25;;;;;;;;;;;24.20;72.20;;;;;;5064334;28;19921;-62
2022/08/06 05:01:51;;;;;;;;;;;24.30;72.40;;;;;;5034782;28;19979;-62
2022/08/06 05:04:17;;;;;;;;;;;24.50;72.20;;;;;;5051202;28;19925;-62
2022/08/06 05:07:00;;;;;;;;;;;24.40;72.20;;;;;;5036141;28;19920;-62
2022/08/06 05:09:26;;;;;;;;;;;24.50;70.90;;;;;;5055934;28;20369;-63
2022/08/06 05:12:03;;;;;;;;;;;24.20;72.00;;;;;;5065510;28;19976;-62
2022/08/06 05:14:30;;;;;;;;;;;24.70;70.80;;;;;;5059738;28;20042;-63
2022/08/06 05:16:56;;;;;;;;;;;24.50;71.80;;;;;;5050387;28;19925;-62
2022/08/06 05:19:24;;;;;;;;;;;24.80;71.70;;;;;;5061183;28;19929;-62
2022/08/06 05:21:49;;;;;;;;;;;24.70;71.60;;;;;;5062351;28;19967;-62
2022/08/06 05:24:15;;;;;;;;;;;25.10;71.40;;;;;;5056570;28;19948;-63
2022/08/06 05:26:41;;;;;;;;;;;24.50;71.30;;;;;;5053299;28;20161;-63
2022/08/06 05:29:06;;;;;;;;;;;25.00;71.60;;;;;;5060270;28;19924;-63
2022/08/06 05:31:34;;;;;;;;;;;24.80;71.40;;;;;;5054340;28;19925;-68
2022/08/06 05:34:01;;;;;;;;;;;24.70;71.70;;;;;;5054751;28;20011;-68
2022/08/06 05:36:26;;;;;;;;;;;24.80;71.50;;;;;;5034155;28;19932;-70
2022/08/06 05:38:52;;;;;;;;;;;25.10;71.90;;;;;;5033585;28;20279;-61
2022/08/06 05:41:18;;;;;;;;;;;25.40;71.30;;;;;;5035903;28;19925;-62
2022/08/06 05:43:44;;;;;;;;;;;25.10;70.80;;;;;;5074109;28;20030;-61
2022/08/06 05:46:20;;;;;;;;;;;25.20;70.90;;;;;;5074526;28;20007;-62
2022/08/06 05:48:53;;;;;;;;;;;25.50;71.00;;;;;;5044647;28;19931;-61
2022/08/06 05:51:19;;;;;;;;;;;25.60;69.30;;;;;;5054891;28;19921;-62
2022/08/06 05:53:57;;;;;;;;;;;25.70;70.60;;;;;;5033228;28;19968;-62
2022/08/06 05:56:27;;;;;;;;;;;25.80;69.10;;;;;;5033224;28;19925;-62
2022/08/06 05:58:56;;;;;;;;;;;25.80;69.00;;;;;;5054455;28;19925;-61
2022/08/06 06:01:22;;;;;;;;;;;26.80;69.60;;;;;;5054087;28;19970;-62
2022/08/06 06:03:48;;;;;;;;;;;26.00;70.20;;;;;;5066201;28;19928;-61
2022/08/06 06:06:13;;;;;;;;;;;26.10;70.00;;;;;;5058630;28;20011;-61
2022/08/06 06:08:39;;;;;;;;;;;26.20;69.80;;;;;;5054187;28;19955;-61
2022/08/06 06:11:07;;;;;;;;;;;26.40;69.90;;;;;;5033005;28;20371;-61
2022/08/06 06:13:33;;;;;;;;;;;26.30;69.70;;;;;;5039226;28;19925;-61
2022/08/06 06:16:17;;;;;;;;;;;26.70;69.70;;;;;;5074158;28;20475;-62
2022/08/06 06:18:48;;;;;;;;;;;26.60;68.30;;;;;;5055941;28;19986;-62
2022/08/06 06:21:18;;;;;;;;;;;26.60;69.70;;;;;;5072265;28;19967;-61
2022/08/06 06:23:46;;;;;;;;;;;27.00;69.90;;;;;;5053804;28;20026;-61
2022/08/06 06:26:14;;;;;;;;;;;26.60;69.40;;;;;;5052875;28;19943;-62
2022/08/06 06:28:49;;;;;;;;;;;27.10;68.20;;;;;;5036663;28;20411;-61
2022/08/06 06:31:22;;;;;;;;;;;27.10;68.10;;;;;;5053674;28;20386;-61
2022/08/06 06:33:50;;;;;;;;;;;27.40;69.80;;;;;;5035932;28;19971;-63
2022/08/06 06:36:31;;;;;;;;;;;27.30;69.50;;;;;;5054189;28;20404;-62
2022/08/06 06:39:04;;;;;;;;;;;27.20;67.90;;;;;;5058356;28;19978;-62
2022/08/06 06:41:36;;;;;;;;;;;27.20;67.80;;;;;;5035766;28;20374;-62
2022/08/06 06:44:18;;;;;;;;;;;27.50;67.90;;;;;;5053853;28;20302;-62
2022/08/06 06:46:57;;;;;;;;;;;27.50;67.70;;;;;;5052702;28;19925;-62
2022/08/06 06:49:42;;;;;;;;;;;27.60;67.70;;;;;;5054332;28;20382;-61
2022/08/06 06:52:13;;;;;;;;;;;27.60;67.60;;;;;;5053492;28;20421;-61
2022/08/06 06:54:40;;;;;;;;;;;27.40;67.40;;;;;;5035888;28;19925;-62
2022/08/06 06:57:06;;;;;;;;;;;27.50;68.80;;;;;;5053997;28;19925;-61
2022/08/06 06:59:33;;;;;;;;;;;27.70;68.90;;;;;;5052591;28;19932;-63
2022/08/06 07:01:59;;;;;;;;;;;27.60;68.70;;;;;;5035957;28;19924;-61
2022/08/06 07:04:24;;;;;;;;;;;27.60;68.10;;;;;;5053690;28;20314;-62
2022/08/06 07:06:52;;;;;;;;;;;27.70;68.20;;;;;;5035913;28;19964;-62
2022/08/06 07:09:19;;;;;;;;;;;28.10;68.50;;;;;;5036110;28;19925;-62
2022/08/06 07:11:45;;;;;;;;;;;27.80;68.60;;;;;;5045810;28;19925;-62
2022/08/06 07:14:10;;;;;;;;;;;27.70;68.30;;;;;;5051197;28;19925;-62
2022/08/06 07:16:37;;;;;;;;;;;28.00;68.70;;;;;;5052341;28;19925;-62
2022/08/06 07:19:06;;;;;;;;;;;27.90;68.60;;;;;;5053538;28;20430;-62
2022/08/06 07:21:31;;;;;;;;;;;27.90;69.00;;;;;;5050855;28;19976;-62
2022/08/06 07:23:57;;;;;;;;;;;27.80;68.70;;;;;;5052271;28;19971;-62
2022/08/06 07:26:23;;;;;;;;;;;27.90;68.90;;;;;;5053466;28;19929;-61
2022/08/06 07:28:49;;;;;;;;;;;28.00;68.90;;;;;;5051800;28;19947;-61
2022/08/06 07:31:15;;;;;;;;;;;27.70;69.10;;;;;;5032784;28;19933;-62
2022/08/06 07:33:41;;;;;;;;;;;27.90;68.80;;;;;;5054311;28;20028;-62
2022/08/06 07:36:07;;;;;;;;;;;27.70;69.00;;;;;;5057057;28;19931;-62
2022/08/06 07:38:32;;;;;;;;;;;27.80;68.40;;;;;;5055832;28;20003;-62
2022/08/06 07:40:59;;;;;;;;;;;27.90;68.80;;;;;;5057048;28;20420;-61
2022/08/06 07:43:25;;;;;;;;;;;27.80;69.00;;;;;;5043119;28;19925;-61
2022/08/06 07:45:51;;;;;;;;;;;27.80;68.70;;;;;;5035886;28;19951;-62
2022/08/06 07:48:18;;;;;;;;;;;28.00;69.00;;;;;;5035741;28;19921;-61
2022/08/06 07:50:44;;;;;;;;;;;28.00;68.90;;;;;;5035816;28;19925;-61
2022/08/06 07:53:10;;;;;;;;;;;28.10;68.90;;;;;;5036267;28;19955;-70
2022/08/06 07:55:36;;;;;;;;;;;28.40;68.80;;;;;;5026363;28;19983;-69
2022/08/06 07:58:03;;;;;;;;;;;28.10;68.50;;;;;;5056765;28;19928;-69
2022/08/06 08:00:29;;;;;;;;;;;28.40;69.00;;;;;;5039067;28;19925;-62
2022/08/06 08:08:24;;;;;;;;;;;28.50;67.70;;;;;;5036469;28;19957;-68
2022/08/06 08:10:49;;;;;;;;;;;28.40;68.70;;;;;;5036589;28;19971;-70
2022/08/06 08:13:18;;;;;;;;;;;28.50;68.50;;;;;;5056928;28;19999;-69
2022/08/06 08:15:44;;;;;;;;;;;28.70;68.60;;;;;;5076092;28;20015;-69
2022/08/06 08:18:09;;;;;;;;;;;28.60;68.70;;;;;;5057454;28;19931;-70
2022/08/06 08:20:35;;;;;;;;;;;28.50;68.20;;;;;;5056557;28;19921;-70
2022/08/06 08:23:02;;;;;;;;;;;28.80;68.50;;;;;;5054860;28;19929;-68
2022/08/06 08:25:28;;;;;;;;;;;28.80;68.30;;;;;;5063376;28;19925;-69
2022/08/06 08:27:54;;;;;;;;;;;28.90;68.30;;;;;;5055862;28;19921;-67
2022/08/06 08:30:19;;;;;;;;;;;28.80;68.10;;;;;;5072435;28;19925;-70
2022/08/06 08:32:45;;;;;;;;;;;28.80;68.20;;;;;;5076646;28;19928;-69
2022/08/06 08:35:11;;;;;;;;;;;28.70;68.40;;;;;;5074478;28;19982;-70
2022/08/06 08:37:37;;;;;;;;;;;28.60;68.50;;;;;;5073592;28;19925;-67
2022/08/06 08:40:03;;;;;;;;;;;28.40;68.30;;;;;;5058504;28;19924;-66
2022/08/06 08:42:43;;;;;;;;;;;28.20;68.20;;;;;;5055940;28;19924;-66
2022/08/06 08:45:09;;;;;;;;;;;28.20;67.50;;;;;;5054875;28;19932;-67
2022/08/06 08:47:36;;;;;;;;;;;28.40;68.90;;;;;;5038000;28;19932;-69
2022/08/06 08:50:01;;;;;;;;;;;28.20;69.30;;;;;;5054996;28;20329;-70
2022/08/06 08:52:33;;;;;;;;;;;28.10;68.80;;;;;;5055373;28;19936;-70
2022/08/06 08:55:03;;;;;;;;;;;28.10;68.00;;;;;;5060069;28;20015;-70
2022/08/06 08:57:29;;;;;;;;;;;28.00;68.20;;;;;;5075649;28;19974;-69
2022/08/06 08:59:54;;;;;;;;;;;28.10;69.50;;;;;;5057260;28;19978;-66
2022/08/06 09:02:20;;;;;;;;;;;27.90;69.60;;;;;;5074498;28;20425;-62
2022/08/06 09:04:45;;;;;;;;;;;27.90;69.60;;;;;;5045070;28;19948;-61
2022/08/06 09:07:11;;;;;;;;;;;27.90;69.80;;;;;;5055336;28;19981;-62
2022/08/06 09:09:37;;;;;;;;;;;27.70;69.70;;;;;;5055417;28;19979;-61
2022/08/06 09:12:04;;;;;;;;;;;28.10;70.30;;;;;;5056622;28;20505;-62
2022/08/06 09:14:29;;;;;;;;;;;28.00;69.50;;;;;;5054922;28;19925;-61
2022/08/06 09:16:56;;;;;;;;;;;27.70;69.90;;;;;;5054914;28;19924;-62
2022/08/06 09:19:21;;;;;;;;;;;28.00;70.20;;;;;;5037307;28;19935;-62
2022/08/06 09:21:47;;;;;;;;;;;28.00;70.20;;;;;;5055983;28;19924;-62
2022/08/06 09:24:12;;;;;;;;;;;28.10;70.20;;;;;;5053943;28;19931;-62
2022/08/06 09:26:39;;;;;;;;;;;27.70;69.80;;;;;;5054173;28;19971;-62
2022/08/06 09:29:14;;;;;;;;;;;28.20;70.30;;;;;;5056186;28;19925;-62
2022/08/06 09:31:40;;;;;;;;;;;28.00;70.40;;;;;;5040511;28;19924;-61
2022/08/06 09:34:06;;;;;;;;;;;27.90;69.90;;;;;;5033922;28;20410;-61
2022/08/06 09:36:41;;;;;;;;;;;28.00;70.00;;;;;;5052629;28;19929;-62
2022/08/06 09:39:06;;;;;;;;;;;28.20;68.90;;;;;;5055040;28;19924;-62
2022/08/06 09:41:32;;;;;;;;;;;28.10;69.80;;;;;;5053359;28;19925;-61
2022/08/06 09:43:58;;;;;;;;;;;27.90;70.10;;;;;;5062988;28;19926;-61
2022/08/06 09:46:38;;;;;;;;;;;28.10;70.20;;;;;;5065515;28;19925;-62
2022/08/06 09:49:03;;;;;;;;;;;27.80;68.90;;;;;;5055156;28;19932;-62
2022/08/06 09:51:30;;;;;;;;;;;27.70;70.50;;;;;;5054639;28;20003;-62
2022/08/06 09:53:56;;;;;;;;;;;27.60;70.30;;;;;;5054122;28;19932;-63
2022/08/06 09:56:22;;;;;;;;;;;28.00;70.70;;;;;;5053637;28;20035;-62
2022/08/06 09:58:48;;;;;;;;;;;27.80;70.30;;;;;;5054480;28;19972;-63
2022/08/06 10:01:13;;;;;;;;;;;27.80;70.30;;;;;;5037179;28;19943;-61
2022/08/06 10:03:39;;;;;;;;;;;27.80;70.50;;;;;;5054954;28;19924;-62
2022/08/06 10:06:06;;;;;;;;;;;27.70;70.70;;;;;;5055633;28;19924;-62
2022/08/06 10:08:32;;;;;;;;;;;27.50;70.70;;;;;;5053031;28;19925;-61
2022/08/06 10:11:02;;;;;;;;;;;27.70;70.80;;;;;;5054256;28;19971;-62
2022/08/06 10:13:28;;;;;;;;;;;27.40;70.70;;;;;;5054229;28;20010;-62
2022/08/06 10:15:54;;;;;;;;;;;27.40;70.90;;;;;;5060328;28;20370;-62
2022/08/06 10:18:37;;;;;;;;;;;27.60;71.20;;;;;;5074181;28;19924;-63
2022/08/06 10:21:06;;;;;;;;;;;27.40;69.60;;;;;;5041535;28;19971;-62
2022/08/06 10:23:33;;;;;;;;;;;27.40;71.00;;;;;;5053739;28;19924;-62
2022/08/06 10:26:00;;;;;;;;;;;27.70;71.30;;;;;;5056086;28;20339;-61
2022/08/06 10:28:26;;;;;;;;;;;27.60;71.20;;;;;;5071728;28;19924;-62
2022/08/06 10:30:52;;;;;;;;;;;27.80;71.10;;;;;;5058846;28;20011;-62
2022/08/06 10:33:17;;;;;;;;;;;27.60;71.20;;;;;;5056201;28;19928;-61
2022/08/06 10:35:43;;;;;;;;;;;27.60;71.00;;;;;;5073936;28;20324;-61
2022/08/06 10:38:08;;;;;;;;;;;27.70;70.90;;;;;;5037945;28;19932;-62
2022/08/06 10:40:34;;;;;;;;;;;27.40;70.80;;;;;;5052488;28;20282;-62
2022/08/06 10:43:03;;;;;;;;;;;27.70;70.90;;;;;;5053665;28;19921;-62
2022/08/06 10:45:29;;;;;;;;;;;27.70;69.90;;;;;;5053661;28;20409;-62
2022/08/06 10:47:55;;;;;;;;;;;27.40;71.10;;;;;;5036143;28;20018;-62
2022/08/06 10:50:21;;;;;;;;;;;27.60;71.60;;;;;;5053856;28;20393;-61
2022/08/06 10:52:46;;;;;;;;;;;27.60;70.90;;;;;;5063279;28;19925;-62
2022/08/06 10:55:12;;;;;;;;;;;27.60;71.10;;;;;;5054765;28;19924;-62
2022/08/06 10:57:38;;;;;;;;;;;27.70;70.90;;;;;;5060865;28;20436;-62
2022/08/06 11:00:04;;;;;;;;;;;27.50;71.10;;;;;;5053706;28;20313;-62
2022/08/06 11:02:51;;;;;;;;;;;27.70;70.90;;;;;;5053767;28;20298;-62
2022/08/06 11:05:17;;;;;;;;;;;27.60;70.00;;;;;;5052475;28;19956;-62
2022/08/06 11:07:58;;;;;;;;;;;27.50;71.30;;;;;;5054716;28;19972;-63
2022/08/06 11:10:37;;;;;;;;;;;27.90;70.00;;;;;;5057777;28;19978;-62
2022/08/06 11:13:09;;;;;;;;;;;27.60;69.90;;;;;;5072745;28;19925;-61
2022/08/06 11:15:35;;;;;;;;;;;27.70;69.90;;;;;;5057729;28;20011;-63
2022/08/06 11:18:08;;;;;;;;;;;27.50;70.90;;;;;;5063896;28;19928;-61
2022/08/06 11:20:36;;;;;;;;;;;27.50;70.00;;;;;;5077145;28;19921;-62
2022/08/06 11:23:11;;;;;;;;;;;27.70;70.70;;;;;;5059159;28;19928;-61
2022/08/06 11:25:46;;;;;;;;;;;27.60;70.00;;;;;;5070427;28;19928;-66
2022/08/06 11:28:12;;;;;;;;;;;27.50;70.10;;;;;;5040185;28;20066;-72
2022/08/06 11:30:42;;;;;;;;;;;27.70;70.90;;;;;;5062530;28;19928;-62
2022/08/06 11:33:08;;;;;;;;;;;27.40;68.60;;;;;;5057211;28;19924;-62
2022/08/06 11:35:34;;;;;;;;;;;27.70;69.80;;;;;;5057504;28;20298;-62
2022/08/06 11:38:00;;;;;;;;;;;27.40;69.20;;;;;;5069193;28;19924;-62
2022/08/06 11:40:26;;;;;;;;;;;27.60;69.80;;;;;;5060587;28;19925;-62
2022/08/06 11:42:51;;;;;;;;;;;27.40;68.90;;;;;;5055426;28;20348;-62
2022/08/06 11:45:17;;;;;;;;;;;27.30;69.50;;;;;;5039746;28;20393;-62
2022/08/06 11:48:09;;;;;;;;;;;27.70;69.40;;;;;;5069270;28;19924;-63
2022/08/06 11:50:34;;;;;;;;;;;27.30;68.10;;;;;;5074582;28;20290;-62
2022/08/06 11:53:00;;;;;;;;;;;27.30;69.30;;;;;;5065537;28;19925;-61
2022/08/06 11:55:26;;;;;;;;;;;27.40;69.50;;;;;;5072486;28;19924;-62
2022/08/06 11:58:12;;;;;;;;;;;27.40;69.60;;;;;;5072482;28;19924;-66
2022/08/06 12:00:54;;;;;;;;;;;27.30;67.80;;;;;;5076710;28;19924;-62
2022/08/06 12:03:35;;;;;;;;;;;27.30;68.10;;;;;;5059523;28;19979;-63
2022/08/06 12:06:01;;;;;;;;;;;27.20;68.80;;;;;;5038498;28;19982;-65
2022/08/06 12:08:27;;;;;;;;;;;27.20;67.90;;;;;;5039695;28;19929;-62
2022/08/06 12:11:11;;;;;;;;;;;27.00;68.30;;;;;;5056572;28;20019;-62
2022/08/06 12:13:38;;;;;;;;;;;27.00;67.60;;;;;;5059367;28;20394;-62
2022/08/06 12:16:04;;;;;;;;;;;27.40;69.00;;;;;;5056362;28;19925;-62
2022/08/06 12:18:37;;;;;;;;;;;27.10;68.10;;;;;;5056659;28;19932;-63
2022/08/06 12:21:08;;;;;;;;;;;27.00;68.60;;;;;;5037267;28;19924;-64
2022/08/06 12:23:34;;;;;;;;;;;26.90;68.40;;;;;;5038420;28;19974;-63
2022/08/06 12:26:00;;;;;;;;;;;27.20;68.50;;;;;;5039063;28;20386;-62
2022/08/06 12:28:25;;;;;;;;;;;26.90;68.00;;;;;;5059910;28;19925;-63
2022/08/06 12:30:52;;;;;;;;;;;27.30;68.40;;;;;;5057948;28;19928;-63
2022/08/06 12:33:18;;;;;;;;;;;26.80;68.50;;;;;;5076080;28;19924;-64
2022/08/06 12:35:53;;;;;;;;;;;27.00;68.80;;;;;;5071145;28;19930;-63
2022/08/06 12:38:20;;;;;;;;;;;27.20;67.50;;;;;;5055516;28;19932;-63
2022/08/06 12:40:55;;;;;;;;;;;27.20;68.50;;;;;;5056713;28;19921;-62
2022/08/06 12:43:21;;;;;;;;;;;27.10;67.30;;;;;;5069717;28;19971;-62
2022/08/06 12:45:47;;;;;;;;;;;27.20;68.40;;;;;;5039522;28;19972;-62
2022/08/06 12:48:12;;;;;;;;;;;27.20;68.00;;;;;;5076175;28;19932;-63
2022/08/06 12:50:42;;;;;;;;;;;27.20;68.50;;;;;;5075003;28;20378;-62
2022/08/06 12:53:12;;;;;;;;;;;27.00;67.30;;;;;;5064652;28;19924;-63
2022/08/06 12:55:47;;;;;;;;;;;27.20;67.40;;;;;;5072464;28;20279;-63
2022/08/06 12:58:19;;;;;;;;;;;27.00;67.20;;;;;;5057926;28;19925;-63
2022/08/06 13:00:52;;;;;;;;;;;27.10;68.60;;;;;;5055286;28;19932;-62
2022/08/06 13:03:18;;;;;;;;;;;27.30;67.10;;;;;;5062480;28;19924;-62
2022/08/06 13:05:44;;;;;;;;;;;26.90;67.80;;;;;;5075531;28;19924;-62
2022/08/06 13:08:09;;;;;;;;;;;27.10;67.20;;;;;;5073788;28;19931;-62
2022/08/06 13:10:35;;;;;;;;;;;27.20;67.50;;;;;;5064748;28;20406;-62
2022/08/06 13:13:02;;;;;;;;;;;27.10;67.50;;;;;;5051001;28;19929;-62
2022/08/06 13:15:28;;;;;;;;;;;27.10;68.00;;;;;;5054060;28;19925;-63
2022/08/06 13:18:03;;;;;;;;;;;27.10;67.10;;;;;;5051462;28;19925;-78
2022/08/06 13:20:55;;;;;;;;;;;27.10;66.30;;;;;;5031188;28;19925;-62
2022/08/06 13:23:48;;;;;;;;;;;27.00;66.40;;;;;;5032844;28;20333;-63
2022/08/06 13:26:20;;;;;;;;;;;27.00;66.20;;;;;;5028088;28;20015;-62
2022/08/06 13:29:06;;;;;;;;;;;27.00;66.40;;;;;;5051382;28;20011;-62
2022/08/06 13:31:32;;;;;;;;;;;27.10;66.30;;;;;;5069743;28;19925;-62
2022/08/06 13:34:09;;;;;;;;;;;27.10;67.70;;;;;;5052096;28;20023;-62
2022/08/06 13:36:36;;;;;;;;;;;27.00;66.40;;;;;;5048792;28;19925;-63
2022/08/06 13:39:30;;;;;;;;;;;27.10;67.30;;;;;;5034333;28;20012;-63
2022/08/06 13:42:13;;;;;;;;;;;26.90;65.70;;;;;;5032848;28;19925;-62
2022/08/06 13:44:39;;;;;;;;;;;26.90;65.70;;;;;;5039937;28;19925;-63
2022/08/06 13:47:05;;;;;;;;;;;27.10;66.90;;;;;;5055067;28;20293;-63
2022/08/06 13:49:31;;;;;;;;;;;26.70;66.20;;;;;;5051182;28;19929;-62
2022/08/06 13:51:57;;;;;;;;;;;26.90;66.10;;;;;;5042189;28;20374;-62
2022/08/06 13:54:23;;;;;;;;;;;27.00;65.90;;;;;;5053045;28;19925;-62
2022/08/06 13:56:48;;;;;;;;;;;26.90;66.40;;;;;;5054438;28;19948;-62
2022/08/06 13:59:16;;;;;;;;;;;27.00;66.10;;;;;;5049952;28;20351;-62
2022/08/06 14:01:41;;;;;;;;;;;26.80;66.20;;;;;;5046644;28;19925;-62
2022/08/06 14:04:07;;;;;;;;;;;27.00;65.80;;;;;;5054115;28;19932;-62
2022/08/06 14:06:33;;;;;;;;;;;26.90;66.20;;;;;;5067909;28;19925;-62
2022/08/06 14:08:59;;;;;;;;;;;26.80;65.90;;;;;;5052663;28;19925;-63
2022/08/06 14:11:25;;;;;;;;;;;26.70;66.40;;;;;;5052329;28;19924;-63
2022/08/06 14:13:51;;;;;;;;;;;26.70;66.00;;;;;;5058545;28;19950;-63
2022/08/06 14:16:16;;;;;;;;;;;26.70;66.30;;;;;;5053809;28;19930;-63
2022/08/06 14:18:42;;;;;;;;;;;26.70;65.90;;;;;;5046645;28;19925;-63
2022/08/06 14:21:08;;;;;;;;;;;26.70;65.90;;;;;;5049637;28;20007;-62
2022/08/06 14:23:34;;;;;;;;;;;26.60;65.80;;;;;;5064479;28;20031;-62
2022/08/06 14:26:01;;;;;;;;;;;26.90;66.50;;;;;;5052653;28;19924;-62
2022/08/06 14:28:26;;;;;;;;;;;26.50;65.90;;;;;;5053909;28;20275;-63